createdAt,value
2023-10-31T00:00:23.649Z,24.89
2023-10-31T00:02:51.839Z,24.89
2023-10-31T00:05:22.007Z,24.89
2023-10-31T00:07:50.312Z,24.89
2023-10-31T00:10:18.556Z,24.88
2023-10-31T00:12:46.607Z,24.88
2023-10-31T00:15:14.650Z,24.89
2023-10-31T00:17:44.288Z,24.88
2023-10-31T00:20:12.510Z,24.86
2023-10-31T00:22:40.573Z,24.85
2023-10-31T00:25:09.136Z,24.85
2023-10-31T00:27:37.174Z,24.85
2023-10-31T00:30:06.131Z,24.85
2023-10-31T00:32:34.430Z,24.85
2023-10-31T00:35:04.430Z,24.84
2023-10-31T00:37:32.513Z,24.84
2023-10-31T00:40:00.622Z,24.84
2023-10-31T00:42:28.878Z,24.84
2023-10-31T00:44:56.914Z,24.84
2023-10-31T00:47:25.021Z,24.85
2023-10-31T00:49:54.281Z,24.85
2023-10-31T00:52:23.720Z,24.84
2023-10-31T00:54:51.790Z,24.84
2023-10-31T00:57:19.883Z,24.84
2023-10-31T00:59:47.966Z,24.83
2023-10-31T01:02:16.413Z,24.83
2023-10-31T01:04:44.518Z,24.84
2023-10-31T01:07:14.751Z,24.83
2023-10-31T01:09:44.157Z,24.83
2023-10-31T01:12:12.499Z,24.82
2023-10-31T01:14:41.680Z,24.82
2023-10-31T01:17:09.763Z,24.82
2023-10-31T01:19:37.846Z,24.82
2023-10-31T01:22:06.364Z,24.81
2023-10-31T01:24:34.429Z,24.82
2023-10-31T01:27:03.905Z,24.82
2023-10-31T01:29:31.963Z,24.81
2023-10-31T01:32:03.212Z,24.81
2023-10-31T01:34:33.775Z,24.82
2023-10-31T01:37:01.849Z,24.82
2023-10-31T01:39:29.910Z,24.81
2023-10-31T01:41:57.934Z,24.82
2023-10-31T01:44:27.879Z,24.82
2023-10-31T01:46:56.022Z,24.81
2023-10-31T01:49:24.085Z,24.82
2023-10-31T01:51:52.551Z,24.80
2023-10-31T01:54:20.615Z,24.81
2023-10-31T01:56:49.738Z,24.81
2023-10-31T01:59:17.821Z,24.80
2023-10-31T02:01:47.783Z,24.80
2023-10-31T02:04:16.068Z,24.79
2023-10-31T02:06:44.098Z,24.78
2023-10-31T02:09:12.193Z,24.78
2023-10-31T02:11:40.207Z,24.78
2023-10-31T02:14:08.289Z,24.78
2023-10-31T02:16:36.429Z,24.78
2023-10-31T02:19:05.956Z,24.77
2023-10-31T02:21:34.014Z,24.78
2023-10-31T02:24:04.094Z,24.78
2023-10-31T02:26:32.220Z,24.79
2023-10-31T02:29:00.313Z,24.78
2023-10-31T02:31:28.446Z,24.77
2023-10-31T02:33:56.625Z,24.77
2023-10-31T02:36:25.105Z,24.78
2023-10-31T02:38:53.158Z,24.78
2023-10-31T02:41:22.593Z,24.78
2023-10-31T02:43:50.733Z,24.78
2023-10-31T02:46:19.064Z,24.77
2023-10-31T02:48:47.486Z,24.77
2023-10-31T02:51:15.682Z,24.77
2023-10-31T02:53:43.733Z,24.75
2023-10-31T02:56:11.849Z,24.75
2023-10-31T02:58:41.294Z,24.76
2023-10-31T03:01:09.390Z,24.75
2023-10-31T03:03:37.457Z,24.75
2023-10-31T03:06:07.189Z,24.75
2023-10-31T03:08:35.254Z,24.75
2023-10-31T03:11:03.341Z,24.74
2023-10-31T03:13:31.431Z,24.75
2023-10-31T03:16:00.964Z,24.74
2023-10-31T03:18:30.358Z,24.75
2023-10-31T03:20:58.405Z,24.75
2023-10-31T03:23:26.512Z,24.75
2023-10-31T03:25:54.588Z,24.77
2023-10-31T03:28:25.346Z,24.74
2023-10-31T03:30:53.579Z,24.75
2023-10-31T03:33:23.076Z,24.75
2023-10-31T03:35:51.182Z,24.75
2023-10-31T03:38:19.307Z,24.74
2023-10-31T03:40:47.494Z,24.74
2023-10-31T03:43:15.623Z,24.74
2023-10-31T03:45:43.951Z,24.73
2023-10-31T03:48:11.050Z,24.72
2023-10-31T03:50:41.767Z,24.72
2023-10-31T03:53:09.926Z,24.72
2023-10-31T03:55:37.975Z,24.72
2023-10-31T03:58:06.907Z,24.71
2023-10-31T04:00:34.967Z,24.73
2023-10-31T04:03:03.212Z,24.71
2023-10-31T04:05:31.311Z,24.71
2023-10-31T04:08:00.739Z,24.72
2023-10-31T04:10:28.830Z,24.71
2023-10-31T04:12:56.884Z,24.71
2023-10-31T04:15:24.979Z,24.72
2023-10-31T04:17:53.072Z,24.71
2023-10-31T04:20:21.398Z,24.73
2023-10-31T04:22:49.507Z,24.73
2023-10-31T04:25:19.031Z,24.71
2023-10-31T04:27:47.103Z,24.72
2023-10-31T04:30:15.412Z,24.71
2023-10-31T04:32:43.650Z,24.71
2023-10-31T04:35:11.804Z,24.70
2023-10-31T04:37:39.949Z,24.70
2023-10-31T04:40:09.051Z,24.70
2023-10-31T04:42:40.500Z,24.69
2023-10-31T04:45:09.946Z,24.69
2023-10-31T04:47:38.101Z,24.69
2023-10-31T04:50:06.755Z,24.69
2023-10-31T04:52:34.813Z,24.70
2023-10-31T04:55:02.927Z,24.69
2023-10-31T04:57:30.975Z,24.69
2023-10-31T05:00:00.636Z,24.70
2023-10-31T05:02:29.898Z,24.70
2023-10-31T05:04:59.386Z,24.70
2023-10-31T05:07:27.545Z,24.71
2023-10-31T05:09:55.658Z,24.73
2023-10-31T05:12:23.775Z,24.75
2023-10-31T05:14:51.829Z,24.74
2023-10-31T05:17:21.439Z,24.74
2023-10-31T05:19:50.360Z,24.61
2023-10-31T05:22:18.499Z,24.49
2023-10-31T05:24:46.547Z,24.45
2023-10-31T05:27:14.666Z,24.48
2023-10-31T05:29:42.715Z,24.53
2023-10-31T05:32:11.010Z,24.55
2023-10-31T05:34:40.447Z,24.58
2023-10-31T05:37:08.533Z,24.59
2023-10-31T05:39:38.011Z,24.62
2023-10-31T05:42:06.379Z,24.63
2023-10-31T05:44:34.464Z,24.65
2023-10-31T05:47:02.585Z,24.51
2023-10-31T05:49:31.445Z,24.36
2023-10-31T05:52:00.923Z,24.31
2023-10-31T05:54:28.980Z,24.36
2023-10-31T05:56:57.075Z,24.42
2023-10-31T05:59:25.788Z,24.47
2023-10-31T06:01:53.961Z,24.51
2023-10-31T06:04:22.056Z,24.51
2023-10-31T06:06:50.153Z,24.53
2023-10-31T06:09:19.588Z,24.53
2023-10-31T06:11:48.695Z,24.55
2023-10-31T06:14:16.773Z,24.56
2023-10-31T06:16:45.212Z,24.59
2023-10-31T06:19:13.360Z,24.61
2023-10-31T06:21:41.617Z,24.63
2023-10-31T06:24:10.480Z,24.65
2023-10-31T06:26:40.611Z,24.65
2023-10-31T06:29:27.588Z,24.67
2023-10-31T06:31:56.895Z,24.68
2023-10-31T06:34:24.961Z,24.70
2023-10-31T06:36:53.799Z,24.71
2023-10-31T06:39:23.661Z,24.73
2023-10-31T06:41:56.282Z,24.73
2023-10-31T06:44:24.418Z,24.74
2023-10-31T06:46:52.498Z,24.77
2023-10-31T06:49:21.863Z,24.77
2023-10-31T06:51:49.924Z,24.79
2023-10-31T06:54:18.046Z,24.80
2023-10-31T06:56:46.115Z,24.80
2023-10-31T06:59:15.617Z,24.81
2023-10-31T07:01:44.603Z,24.81
2023-10-31T07:04:12.894Z,24.80
2023-10-31T07:06:40.992Z,24.80
2023-10-31T07:09:09.126Z,24.80
2023-10-31T07:11:37.201Z,24.81
2023-10-31T07:14:05.327Z,24.82
2023-10-31T07:16:35.590Z,24.82
2023-10-31T07:19:03.728Z,24.82
2023-10-31T07:21:31.778Z,24.84
2023-10-31T07:23:59.867Z,24.83
2023-10-31T07:26:28.831Z,24.83
2023-10-31T07:28:57.083Z,24.84
2023-10-31T07:31:25.134Z,24.85
2023-10-31T07:33:54.648Z,24.85
2023-10-31T07:36:22.739Z,24.85
2023-10-31T07:38:50.775Z,24.87
2023-10-31T07:41:18.867Z,24.88
2023-10-31T07:43:46.965Z,24.87
2023-10-31T07:46:15.179Z,24.87
2023-10-31T07:48:43.388Z,24.88
2023-10-31T07:51:12.845Z,24.89
2023-10-31T07:53:40.934Z,24.90
2023-10-31T07:56:16.532Z,24.90
2023-10-31T07:58:44.691Z,24.90
2023-10-31T08:01:12.780Z,24.89
2023-10-31T08:03:41.012Z,24.89
2023-10-31T08:06:09.505Z,24.89
2023-10-31T08:08:38.948Z,24.90
2023-10-31T08:11:09.839Z,24.89
2023-10-31T08:13:38.671Z,24.89
2023-10-31T08:16:08.083Z,24.89
2023-10-31T08:18:36.509Z,24.90
2023-10-31T08:21:05.318Z,24.88
2023-10-31T08:23:33.394Z,24.87
2023-10-31T08:26:02.834Z,24.88
2023-10-31T08:28:31.898Z,24.88
2023-10-31T08:31:00.067Z,24.88
2023-10-31T08:33:28.175Z,24.88
2023-10-31T08:35:56.223Z,24.87
2023-10-31T08:38:29.546Z,24.87
2023-10-31T08:41:01.948Z,24.88
2023-10-31T08:43:30.529Z,24.88
2023-10-31T08:45:58.598Z,24.87
2023-10-31T08:48:27.081Z,24.86
2023-10-31T08:50:55.133Z,24.89
2023-10-31T08:53:23.835Z,24.88
2023-10-31T08:55:51.937Z,24.87
2023-10-31T08:58:21.442Z,24.88
2023-10-31T09:00:49.665Z,24.88
2023-10-31T09:03:17.847Z,24.88
2023-10-31T09:05:45.961Z,24.87
2023-10-31T09:08:14.128Z,24.88
2023-10-31T09:10:43.804Z,24.87
2023-10-31T09:13:12.081Z,24.86
2023-10-31T09:15:42.433Z,24.87
2023-10-31T09:18:10.560Z,24.86
2023-10-31T09:20:38.693Z,24.86
2023-10-31T09:23:06.848Z,24.86
2023-10-31T09:25:34.937Z,24.86
2023-10-31T09:28:03.027Z,24.86
2023-10-31T09:30:31.078Z,24.86
2023-10-31T09:33:00.617Z,24.86
2023-10-31T09:35:28.873Z,24.85
2023-10-31T09:37:57.027Z,24.86
2023-10-31T09:40:25.209Z,24.87
2023-10-31T09:42:53.265Z,24.86
2023-10-31T09:45:21.426Z,24.86
2023-10-31T09:47:49.466Z,24.86
2023-10-31T09:50:19.004Z,24.86
2023-10-31T09:52:47.498Z,24.87
2023-10-31T09:55:15.543Z,24.86
2023-10-31T09:57:43.687Z,24.87
2023-10-31T10:00:12.935Z,24.87
2023-10-31T10:02:41.722Z,24.87
2023-10-31T10:05:11.373Z,24.88
2023-10-31T10:07:40.855Z,24.88
2023-10-31T10:10:12.227Z,24.87
2023-10-31T10:12:40.590Z,24.88
2023-10-31T10:15:09.685Z,24.89
2023-10-31T10:17:37.813Z,24.90
2023-10-31T10:20:10.369Z,24.91
2023-10-31T10:22:40.858Z,24.91
2023-10-31T10:25:09.222Z,24.92
2023-10-31T10:27:37.783Z,24.94
2023-10-31T10:30:06.638Z,24.94
2023-10-31T10:32:34.793Z,24.95
2023-10-31T10:35:03.006Z,24.97
2023-10-31T10:37:31.961Z,24.97
2023-10-31T10:40:01.908Z,25.00
2023-10-31T10:42:34.294Z,25.00
2023-10-31T10:45:04.816Z,25.01
2023-10-31T10:47:33.381Z,25.02
2023-10-31T10:50:02.176Z,25.02
2023-10-31T10:52:30.947Z,25.01
2023-10-31T10:55:08.380Z,25.01
2023-10-31T10:57:41.165Z,25.01
2023-10-31T11:00:13.687Z,25.01
2023-10-31T11:02:42.052Z,25.01
2023-10-31T11:05:10.398Z,25.01
2023-10-31T11:07:39.291Z,25.02
2023-10-31T11:10:09.878Z,25.02
2023-10-31T11:12:37.985Z,25.03
2023-10-31T11:15:07.145Z,25.02
2023-10-31T11:17:36.674Z,25.03
2023-10-31T11:20:05.441Z,25.05
2023-10-31T11:22:40.607Z,25.06
2023-10-31T11:25:16.695Z,25.06
2023-10-31T11:27:52.530Z,25.07
2023-10-31T11:30:24.394Z,25.07
2023-10-31T11:32:54.011Z,25.08
2023-10-31T11:35:22.206Z,25.08
2023-10-31T11:37:50.612Z,25.09
2023-10-31T11:40:24.358Z,25.10
2023-10-31T11:42:54.120Z,25.10
2023-10-31T11:45:29.680Z,25.10
2023-10-31T11:47:57.948Z,25.09
2023-10-31T11:50:26.321Z,25.10
2023-10-31T11:53:01.635Z,25.10
2023-10-31T11:55:31.173Z,25.09
2023-10-31T11:57:59.262Z,25.09
2023-10-31T12:00:28.143Z,25.09
2023-10-31T12:03:02.541Z,25.09
2023-10-31T12:05:30.967Z,25.08
2023-10-31T12:07:59.152Z,25.09
2023-10-31T12:10:31.060Z,25.08
2023-10-31T12:13:00.699Z,25.08
2023-10-31T12:15:28.749Z,25.07
2023-10-31T12:18:00.692Z,25.07
2023-10-31T12:20:29.521Z,25.06
2023-10-31T12:23:04.934Z,25.06
2023-10-31T12:25:37.068Z,25.07
2023-10-31T12:28:06.820Z,25.07
2023-10-31T12:30:34.891Z,25.07
2023-10-31T12:33:03.036Z,25.07
2023-10-31T12:35:31.508Z,25.06
2023-10-31T12:37:59.699Z,25.06
2023-10-31T12:40:27.754Z,25.04
2023-10-31T12:42:55.849Z,25.05
2023-10-31T12:45:25.344Z,25.05
2023-10-31T12:48:06.210Z,25.04
2023-10-31T12:50:34.515Z,25.04
2023-10-31T12:53:04.576Z,25.04
2023-10-31T12:55:33.271Z,25.05
2023-10-31T12:58:01.612Z,25.04
2023-10-31T13:00:34.846Z,25.05
2023-10-31T13:03:03.709Z,25.05
2023-10-31T13:05:32.108Z,25.06
2023-10-31T13:08:01.687Z,25.06
2023-10-31T13:10:30.253Z,25.05
2023-10-31T13:12:58.448Z,25.06
2023-10-31T13:15:26.598Z,25.07
2023-10-31T13:17:56.095Z,25.07
2023-10-31T13:20:24.357Z,25.07
2023-10-31T13:22:52.795Z,25.08
2023-10-31T13:25:20.866Z,25.09
2023-10-31T13:27:52.314Z,25.09
2023-10-31T13:30:22.294Z,25.10
2023-10-31T13:32:50.524Z,25.10
2023-10-31T13:35:20.199Z,25.10
2023-10-31T13:37:48.271Z,25.11
2023-10-31T13:40:16.363Z,25.11
2023-10-31T13:42:44.417Z,25.13
2023-10-31T13:45:12.488Z,25.13
2023-10-31T13:47:40.685Z,25.13
2023-10-31T13:50:10.054Z,25.14
2023-10-31T13:52:40.189Z,25.15
2023-10-31T13:55:08.774Z,25.15
2023-10-31T13:57:36.840Z,25.15
2023-10-31T14:00:05.740Z,25.15
2023-10-31T14:02:41.473Z,25.15
2023-10-31T14:05:10.179Z,25.15
2023-10-31T14:07:39.839Z,25.15
2023-10-31T14:10:08.628Z,25.15
2023-10-31T14:12:36.678Z,25.15
2023-10-31T14:15:05.329Z,25.15
2023-10-31T14:17:33.449Z,25.15
2023-10-31T14:20:01.667Z,25.14
2023-10-31T14:22:29.754Z,25.14
2023-10-31T14:24:59.313Z,25.15
2023-10-31T14:27:27.390Z,25.16
2023-10-31T14:29:55.568Z,25.16
2023-10-31T14:32:23.681Z,25.16
2023-10-31T14:34:52.042Z,25.15
2023-10-31T14:37:20.140Z,25.17
2023-10-31T14:39:48.203Z,25.17
2023-10-31T14:42:17.687Z,25.17
2023-10-31T14:44:45.767Z,25.17
2023-10-31T14:47:13.862Z,25.17
2023-10-31T14:49:48.107Z,25.18
2023-10-31T14:52:16.201Z,25.18
2023-10-31T14:54:44.286Z,25.18
2023-10-31T14:57:12.375Z,25.18
2023-10-31T14:59:43.436Z,25.19
2023-10-31T15:02:11.639Z,25.19
2023-10-31T15:04:39.706Z,25.20
2023-10-31T15:07:07.824Z,25.18
2023-10-31T15:09:35.910Z,25.18
2023-10-31T15:12:04.048Z,25.18
2023-10-31T15:14:32.149Z,25.18
2023-10-31T15:17:01.660Z,25.19
2023-10-31T15:19:29.854Z,25.18
2023-10-31T15:21:57.903Z,25.18
2023-10-31T15:24:25.976Z,25.18
2023-10-31T15:26:54.045Z,25.19
2023-10-31T15:29:22.141Z,25.19
2023-10-31T15:31:55.069Z,25.18
2023-10-31T15:34:24.814Z,25.19
2023-10-31T15:36:52.915Z,25.20
2023-10-31T15:39:21.026Z,25.20
2023-10-31T15:41:49.117Z,25.20
2023-10-31T15:44:17.311Z,25.20
2023-10-31T15:46:45.366Z,25.20
2023-10-31T15:49:13.607Z,25.20
2023-10-31T15:51:44.226Z,25.20
2023-10-31T15:54:12.485Z,25.20
2023-10-31T15:56:40.577Z,25.20
2023-10-31T15:59:08.842Z,25.20
2023-10-31T16:01:37.093Z,25.20
2023-10-31T16:04:06.111Z,25.20
2023-10-31T16:06:34.245Z,25.20
2023-10-31T16:09:04.198Z,25.21
2023-10-31T16:11:33.311Z,25.19
2023-10-31T16:14:02.230Z,25.19
2023-10-31T16:16:30.338Z,25.19
2023-10-31T16:18:58.442Z,25.19
2023-10-31T16:21:26.556Z,25.19
2023-10-31T16:23:56.730Z,25.19
2023-10-31T16:26:26.236Z,25.19
2023-10-31T16:28:56.536Z,25.19
2023-10-31T16:31:26.202Z,25.19
2023-10-31T16:33:54.292Z,25.19
2023-10-31T16:36:23.092Z,25.19
2023-10-31T16:38:51.156Z,25.19
2023-10-31T16:41:19.294Z,25.20
2023-10-31T16:43:48.756Z,25.20
2023-10-31T16:46:16.838Z,25.20
2023-10-31T16:48:45.757Z,25.20
2023-10-31T16:51:18.109Z,25.21
2023-10-31T16:53:46.309Z,25.21
2023-10-31T16:56:14.363Z,25.20
2023-10-31T16:58:43.772Z,25.21
2023-10-31T17:01:13.421Z,25.20
2023-10-31T17:03:41.670Z,25.21
2023-10-31T17:06:12.133Z,25.19
2023-10-31T17:08:41.329Z,25.20
2023-10-31T17:11:09.877Z,25.19
2023-10-31T17:13:38.657Z,25.19
2023-10-31T17:16:08.993Z,25.19
2023-10-31T17:18:39.129Z,25.18
2023-10-31T17:21:07.966Z,25.18
2023-10-31T17:23:36.105Z,25.18
2023-10-31T17:26:05.170Z,25.19
2023-10-31T17:28:39.897Z,25.18
2023-10-31T17:31:08.927Z,25.19
2023-10-31T17:33:41.237Z,25.19
2023-10-31T17:36:10.937Z,25.19
2023-10-31T17:38:39.025Z,25.20
2023-10-31T17:41:07.362Z,25.19
2023-10-31T17:43:35.508Z,25.19
2023-10-31T17:46:03.587Z,25.20
2023-10-31T17:48:31.635Z,25.20
2023-10-31T17:51:02.939Z,25.20
2023-10-31T17:53:31.087Z,25.20
2023-10-31T17:55:59.173Z,25.19
2023-10-31T17:58:27.268Z,25.19
2023-10-31T18:00:55.635Z,25.19
2023-10-31T18:03:24.206Z,25.19
2023-10-31T18:05:52.270Z,25.19
2023-10-31T18:08:21.947Z,25.18
2023-10-31T18:10:50.058Z,25.18
2023-10-31T18:13:18.132Z,25.18
2023-10-31T18:15:46.278Z,25.18
2023-10-31T18:18:14.504Z,25.18
2023-10-31T18:20:42.640Z,25.17
2023-10-31T18:23:10.884Z,25.18
2023-10-31T18:25:40.331Z,25.17
2023-10-31T18:28:08.456Z,25.17
2023-10-31T18:30:38.110Z,25.19
2023-10-31T18:33:06.987Z,25.18
2023-10-31T18:35:35.126Z,25.18
2023-10-31T18:38:03.561Z,25.18
2023-10-31T18:40:33.422Z,25.18
2023-10-31T18:43:02.926Z,25.18
2023-10-31T18:45:31.026Z,25.19
2023-10-31T18:48:00.000Z,25.19
2023-10-31T18:50:28.118Z,25.19
2023-10-31T18:52:56.227Z,25.18
2023-10-31T18:55:24.330Z,25.19
2023-10-31T18:57:52.398Z,25.18
2023-10-31T19:00:22.158Z,25.18
2023-10-31T19:02:50.289Z,25.19
2023-10-31T19:05:18.413Z,25.18
2023-10-31T19:07:47.222Z,25.18
2023-10-31T19:10:15.299Z,25.18
2023-10-31T19:12:43.379Z,25.17
2023-10-31T19:15:11.944Z,25.17
2023-10-31T19:17:43.791Z,25.18
2023-10-31T19:20:13.161Z,25.17
2023-10-31T19:22:41.222Z,25.18
2023-10-31T19:25:09.771Z,25.17
2023-10-31T19:27:37.836Z,25.17
2023-10-31T19:30:06.474Z,25.17
2023-10-31T19:32:34.625Z,25.17
2023-10-31T19:35:06.167Z,25.17
2023-10-31T19:37:34.246Z,25.18
2023-10-31T19:40:04.382Z,25.19
2023-10-31T19:42:32.522Z,25.18
2023-10-31T19:45:00.676Z,25.18
2023-10-31T19:47:29.127Z,25.18
2023-10-31T19:49:57.298Z,25.19
2023-10-31T19:52:27.211Z,25.19
2023-10-31T19:54:55.333Z,25.19
2023-10-31T19:57:23.404Z,25.19
2023-10-31T19:59:51.467Z,25.20
2023-10-31T20:02:19.598Z,25.20
2023-10-31T20:04:47.670Z,25.20
2023-10-31T20:07:15.724Z,25.21
2023-10-31T20:09:45.188Z,25.21
2023-10-31T20:12:13.295Z,25.21
2023-10-31T20:14:59.523Z,25.22
2023-10-31T20:17:29.528Z,25.23
2023-10-31T20:19:57.620Z,25.23
2023-10-31T20:22:25.721Z,25.23
2023-10-31T20:24:56.028Z,25.24
2023-10-31T20:27:24.414Z,25.25
2023-10-31T20:29:51.529Z,25.25
2023-10-31T20:32:19.619Z,25.25
2023-10-31T20:34:46.658Z,25.26
2023-10-31T20:37:14.747Z,25.26
2023-10-31T20:39:44.314Z,25.26
2023-10-31T20:42:13.940Z,25.26
2023-10-31T20:44:42.112Z,25.27
2023-10-31T20:47:10.918Z,25.28
2023-10-31T20:49:39.027Z,25.27
2023-10-31T20:52:07.547Z,25.27
2023-10-31T20:54:35.965Z,25.27
2023-10-31T20:57:04.619Z,25.27
2023-10-31T20:59:34.098Z,25.27
2023-10-31T21:02:02.207Z,25.28
2023-10-31T21:04:33.217Z,25.26
2023-10-31T21:07:01.437Z,25.07
2023-10-31T21:09:29.706Z,24.86
2023-10-31T21:11:57.948Z,24.77
2023-10-31T21:14:26.082Z,24.83
2023-10-31T21:16:55.706Z,24.90
2023-10-31T21:19:30.992Z,24.95
2023-10-31T21:22:04.549Z,24.98
2023-10-31T21:24:32.674Z,25.00
2023-10-31T21:27:00.756Z,25.01
2023-10-31T21:29:28.827Z,25.02
2023-10-31T21:31:58.283Z,25.05
2023-10-31T21:34:26.629Z,25.05
2023-10-31T21:36:54.668Z,25.06
2023-10-31T21:39:23.140Z,25.06
2023-10-31T21:41:51.677Z,25.07
2023-10-31T21:44:26.466Z,25.07
2023-10-31T21:46:54.773Z,25.07
2023-10-31T21:49:24.213Z,25.07
2023-10-31T21:51:53.338Z,25.07
2023-10-31T21:54:21.467Z,25.06
2023-10-31T21:56:49.638Z,25.06
2023-10-31T21:59:17.818Z,25.06
2023-10-31T22:01:46.047Z,25.05
2023-10-31T22:04:14.358Z,25.03
2023-10-31T22:06:43.866Z,25.03
2023-10-31T22:09:12.536Z,25.02
2023-10-31T22:11:40.782Z,25.01
2023-10-31T22:14:09.377Z,24.99
2023-10-31T22:16:37.541Z,24.98
2023-10-31T22:19:07.113Z,24.97
2023-10-31T22:21:35.197Z,24.95
2023-10-31T22:24:05.245Z,24.94
2023-10-31T22:26:33.444Z,24.92
2023-10-31T22:29:01.518Z,24.91
2023-10-31T22:31:29.679Z,24.90
2023-10-31T22:33:57.809Z,24.90
2023-10-31T22:36:25.915Z,24.88
2023-10-31T22:38:53.977Z,24.87
2023-10-31T22:41:23.510Z,24.86
2023-10-31T22:43:51.618Z,24.86
2023-10-31T22:46:20.210Z,24.84
2023-10-31T22:48:48.275Z,24.84
2023-10-31T22:51:16.361Z,24.83
2023-10-31T22:53:44.426Z,24.81
2023-10-31T22:56:12.992Z,24.81
2023-10-31T22:58:42.432Z,24.80
2023-10-31T23:01:10.601Z,24.79
2023-10-31T23:03:38.656Z,24.79
2023-10-31T23:06:07.727Z,24.77
2023-10-31T23:08:35.870Z,24.76
2023-10-31T23:11:04.226Z,24.75
2023-10-31T23:13:32.349Z,24.74
2023-10-31T23:16:01.936Z,24.73
2023-10-31T23:18:30.020Z,24.72
2023-10-31T23:20:58.118Z,24.72
2023-10-31T23:23:26.179Z,24.70
2023-10-31T23:25:54.292Z,24.69
2023-10-31T23:28:22.367Z,24.69
2023-10-31T23:30:56.720Z,24.67
2023-10-31T23:33:29.703Z,24.68
2023-10-31T23:35:58.824Z,24.67
2023-10-31T23:38:28.359Z,24.67
2023-10-31T23:40:56.650Z,24.67
2023-10-31T23:43:24.694Z,24.65
2023-10-31T23:45:52.818Z,24.66
2023-10-31T23:48:20.892Z,24.64
2023-10-31T23:50:50.380Z,24.64
2023-10-31T23:53:18.472Z,24.63
2023-10-31T23:55:48.536Z,24.63
2023-10-31T23:58:16.997Z,24.63
